Crow Agency, Montana
Current Conditions -  °F | °C
As of 11:53 AM on Friday 24 Oct 2014 (Local Time) from KBIL Reporting Station
Overcast Overcast  
Wind Chill: 57°   Ceiling: 9500
Heat Index: 57°   Visibility: 10mi
Dew Point: 38°   Wind: 7mph
Humidity: 49%   Direction: 50°NE
Pressure: 30.07"   Gusts: NA
Location:  45.6°N, 107.46°W
Report Text: KBIL 241753Z 05006KT 10SM FEW080 OVC095 14/03 A3007 RMK AO2 SLP169 T01390033 10139 20094 51012
Loading
Personal Weather Stations






























Interactive Weather Map
Tropical Storm Tracking
New forecast layout! Learn more

10-Day Weather Forecast

Advertisements
Track Severe Weather on mobile